sensor_id;sensor_type;location;lat;lon;timestamp;temperature;humidity
53294;DHT22;39181;53.440;5.644;2023-02-10T00:01:38;3.90;99.90
53294;DHT22;39181;53.440;5.644;2023-02-10T00:04:04;3.90;99.90
53294;DHT22;39181;53.440;5.644;2023-02-10T00:06:29;4.00;99.90
53294;DHT22;39181;53.440;5.644;2023-02-10T00:08:58;4.00;99.90
53294;DHT22;39181;53.440;5.644;2023-02-10T00:11:24;4.00;99.90
53294;DHT22;39181;53.440;5.644;2023-02-10T00:14:09;4.00;99.90
53294;DHT22;39181;53.440;5.644;2023-02-10T00:16:35;4.10;99.90
53294;DHT22;39181;53.440;5.644;2023-02-10T00:19:01;4.20;99.90
53294;DHT22;39181;53.440;5.644;2023-02-10T00:21:27;4.10;99.90
53294;DHT22;39181;53.440;5.644;2023-02-10T00:23:52;4.10;99.90
53294;DHT22;39181;53.440;5.644;2023-02-10T00:26:18;4.10;99.90
53294;DHT22;39181;53.440;5.644;2023-02-10T00:28:43;4.20;99.90
53294;DHT22;39181;53.440;5.644;2023-02-10T00:31:11;4.10;99.90
53294;DHT22;39181;53.440;5.644;2023-02-10T00:33:38;4.10;99.90
53294;DHT22;39181;53.440;5.644;2023-02-10T00:36:05;4.10;99.90
53294;DHT22;39181;53.440;5.644;2023-02-10T00:38:31;4.10;99.90
53294;DHT22;39181;53.440;5.644;2023-02-10T00:41:05;4.00;99.90
53294;DHT22;39181;53.440;5.644;2023-02-10T00:43:31;4.00;99.90
53294;DHT22;39181;53.440;5.644;2023-02-10T00:45:56;3.90;99.90
53294;DHT22;39181;53.440;5.644;2023-02-10T00:48:22;3.90;99.90
53294;DHT22;39181;53.440;5.644;2023-02-10T00:50:48;3.90;99.90
53294;DHT22;39181;53.440;5.644;2023-02-10T00:53:13;3.80;99.90
53294;DHT22;39181;53.440;5.644;2023-02-10T00:55:39;3.90;99.90
53294;DHT22;39181;53.440;5.644;2023-02-10T00:58:04;4.00;99.90
53294;DHT22;39181;53.440;5.644;2023-02-10T01:00:30;4.00;99.90
53294;DHT22;39181;53.440;5.644;2023-02-10T01:02:55;4.00;99.90
53294;DHT22;39181;53.440;5.644;2023-02-10T01:05:21;4.00;99.90
53294;DHT22;39181;53.440;5.644;2023-02-10T01:07:47;4.00;99.90
53294;DHT22;39181;53.440;5.644;2023-02-10T01:10:12;4.00;99.90
53294;DHT22;39181;53.440;5.644;2023-02-10T01:12:38;3.90;99.90
53294;DHT22;39181;53.440;5.644;2023-02-10T01:15:04;4.00;99.90
53294;DHT22;39181;53.440;5.644;2023-02-10T01:17:29;3.90;99.90
53294;DHT22;39181;53.440;5.644;2023-02-10T01:19:55;3.90;99.90
53294;DHT22;39181;53.440;5.644;2023-02-10T01:22:21;3.80;99.90
53294;DHT22;39181;53.440;5.644;2023-02-10T01:24:47;3.80;99.90
53294;DHT22;39181;53.440;5.644;2023-02-10T01:27:12;3.80;99.90
53294;DHT22;39181;53.440;5.644;2023-02-10T01:29:38;3.70;99.90
53294;DHT22;39181;53.440;5.644;2023-02-10T01:32:04;3.70;99.90
53294;DHT22;39181;53.440;5.644;2023-02-10T01:34:29;3.70;99.90
53294;DHT22;39181;53.440;5.644;2023-02-10T01:36:55;3.60;99.90
53294;DHT22;39181;53.440;5.644;2023-02-10T01:39:20;3.70;99.90
53294;DHT22;39181;53.440;5.644;2023-02-10T01:41:46;3.60;99.90
53294;DHT22;39181;53.440;5.644;2023-02-10T01:46:47;3.60;99.90
53294;DHT22;39181;53.440;5.644;2023-02-10T01:49:15;3.50;99.90
53294;DHT22;39181;53.440;5.644;2023-02-10T01:51:50;3.50;99.90
53294;DHT22;39181;53.440;5.644;2023-02-10T01:54:21;3.40;99.90
53294;DHT22;39181;53.440;5.644;2023-02-10T01:56:49;3.40;99.90
53294;DHT22;39181;53.440;5.644;2023-02-10T01:59:15;3.40;99.90
53294;DHT22;39181;53.440;5.644;2023-02-10T02:01:41;3.40;99.90
53294;DHT22;39181;53.440;5.644;2023-02-10T02:04:06;3.30;99.90
53294;DHT22;39181;53.440;5.644;2023-02-10T02:06:33;3.40;99.90
53294;DHT22;39181;53.440;5.644;2023-02-10T02:09:00;3.40;99.90
53294;DHT22;39181;53.440;5.644;2023-02-10T02:11:48;3.40;99.90
53294;DHT22;39181;53.440;5.644;2023-02-10T02:14:31;3.40;99.90
53294;DHT22;39181;53.440;5.644;2023-02-10T02:17:19;3.30;99.90
53294;DHT22;39181;53.440;5.644;2023-02-10T02:31:51;3.20;99.90
53294;DHT22;39181;53.440;5.644;2023-02-10T02:34:36;3.20;99.90
53294;DHT22;39181;53.440;5.644;2023-02-10T02:39:35;3.30;99.90
53294;DHT22;39181;53.440;5.644;2023-02-10T02:44:35;3.20;99.90
53294;DHT22;39181;53.440;5.644;2023-02-10T02:47:21;3.10;99.90
53294;DHT22;39181;53.440;5.644;2023-02-10T02:55:46;3.10;99.90
53294;DHT22;39181;53.440;5.644;2023-02-10T03:00:46;3.00;99.90
53294;DHT22;39181;53.440;5.644;2023-02-10T03:03:14;3.20;99.90
53294;DHT22;39181;53.440;5.644;2023-02-10T03:05:40;3.10;99.90
53294;DHT22;39181;53.440;5.644;2023-02-10T03:08:06;3.10;99.90
53294;DHT22;39181;53.440;5.644;2023-02-10T03:10:31;3.10;99.90
53294;DHT22;39181;53.440;5.644;2023-02-10T03:12:57;3.20;99.90
53294;DHT22;39181;53.440;5.644;2023-02-10T03:15:23;3.10;99.90
53294;DHT22;39181;53.440;5.644;2023-02-10T03:17:48;3.20;99.90
53294;DHT22;39181;53.440;5.644;2023-02-10T03:20:14;3.10;99.90
53294;DHT22;39181;53.440;5.644;2023-02-10T03:22:41;3.10;99.90
53294;DHT22;39181;53.440;5.644;2023-02-10T03:25:07;3.10;99.90
53294;DHT22;39181;53.440;5.644;2023-02-10T03:27:32;3.10;99.90
53294;DHT22;39181;53.440;5.644;2023-02-10T03:29:58;3.00;99.90
53294;DHT22;39181;53.440;5.644;2023-02-10T03:32:23;3.00;99.90
53294;DHT22;39181;53.440;5.644;2023-02-10T03:34:49;3.00;99.90
53294;DHT22;39181;53.440;5.644;2023-02-10T03:37:15;3.00;99.90
53294;DHT22;39181;53.440;5.644;2023-02-10T03:39:40;2.90;99.90
53294;DHT22;39181;53.440;5.644;2023-02-10T03:42:06;2.90;99.90
53294;DHT22;39181;53.440;5.644;2023-02-10T03:44:32;2.90;99.90
53294;DHT22;39181;53.440;5.644;2023-02-10T03:46:58;2.80;99.90
53294;DHT22;39181;53.440;5.644;2023-02-10T03:49:23;2.70;99.90
53294;DHT22;39181;53.440;5.644;2023-02-10T03:51:49;2.70;99.90
53294;DHT22;39181;53.440;5.644;2023-02-10T03:54:15;2.70;99.90
53294;DHT22;39181;53.440;5.644;2023-02-10T03:56:40;2.70;99.90
53294;DHT22;39181;53.440;5.644;2023-02-10T03:59:06;2.70;99.90
53294;DHT22;39181;53.440;5.644;2023-02-10T04:01:32;2.60;99.90
53294;DHT22;39181;53.440;5.644;2023-02-10T04:03:59;2.70;99.90
53294;DHT22;39181;53.440;5.644;2023-02-10T04:06:24;2.60;99.90
53294;DHT22;39181;53.440;5.644;2023-02-10T04:08:50;2.70;99.90
53294;DHT22;39181;53.440;5.644;2023-02-10T04:11:16;2.80;99.90
53294;DHT22;39181;53.440;5.644;2023-02-10T04:13:41;2.80;99.90
53294;DHT22;39181;53.440;5.644;2023-02-10T04:16:09;2.80;99.90
53294;DHT22;39181;53.440;5.644;2023-02-10T04:18:36;2.90;99.90
53294;DHT22;39181;53.440;5.644;2023-02-10T04:21:04;2.90;99.90
53294;DHT22;39181;53.440;5.644;2023-02-10T04:23:31;2.90;99.90
53294;DHT22;39181;53.440;5.644;2023-02-10T04:25:57;2.90;99.90
53294;DHT22;39181;53.440;5.644;2023-02-10T04:28:23;2.90;99.90
53294;DHT22;39181;53.440;5.644;2023-02-10T04:30:56;3.00;99.90
53294;DHT22;39181;53.440;5.644;2023-02-10T04:33:22;3.00;99.90
53294;DHT22;39181;53.440;5.644;2023-02-10T04:35:49;3.10;99.90
53294;DHT22;39181;53.440;5.644;2023-02-10T04:38:15;3.20;99.90
53294;DHT22;39181;53.440;5.644;2023-02-10T04:40:41;3.20;99.90
53294;DHT22;39181;53.440;5.644;2023-02-10T04:43:08;3.30;99.90
53294;DHT22;39181;53.440;5.644;2023-02-10T04:45:34;3.20;99.90
53294;DHT22;39181;53.440;5.644;2023-02-10T04:47:59;3.30;99.90
53294;DHT22;39181;53.440;5.644;2023-02-10T04:50:25;3.20;99.90
53294;DHT22;39181;53.440;5.644;2023-02-10T04:52:50;3.20;99.90
53294;DHT22;39181;53.440;5.644;2023-02-10T04:55:16;3.20;99.90
53294;DHT22;39181;53.440;5.644;2023-02-10T04:57:42;3.20;99.90
53294;DHT22;39181;53.440;5.644;2023-02-10T05:00:08;3.30;99.90
53294;DHT22;39181;53.440;5.644;2023-02-10T05:02:34;3.30;99.90
53294;DHT22;39181;53.440;5.644;2023-02-10T05:04:59;3.30;99.90
53294;DHT22;39181;53.440;5.644;2023-02-10T05:07:25;3.20;99.90
53294;DHT22;39181;53.440;5.644;2023-02-10T05:09:51;3.20;99.90
53294;DHT22;39181;53.440;5.644;2023-02-10T05:12:16;3.20;99.90
53294;DHT22;39181;53.440;5.644;2023-02-10T05:14:42;3.20;99.90
53294;DHT22;39181;53.440;5.644;2023-02-10T05:17:07;3.30;99.90
53294;DHT22;39181;53.440;5.644;2023-02-10T05:19:33;3.30;99.90
53294;DHT22;39181;53.440;5.644;2023-02-10T05:21:58;3.30;99.90
53294;DHT22;39181;53.440;5.644;2023-02-10T05:24:24;3.30;99.90
53294;DHT22;39181;53.440;5.644;2023-02-10T05:26:50;3.30;99.90
53294;DHT22;39181;53.440;5.644;2023-02-10T05:29:15;3.40;99.90
53294;DHT22;39181;53.440;5.644;2023-02-10T05:31:41;3.40;99.90
53294;DHT22;39181;53.440;5.644;2023-02-10T05:34:06;3.50;99.90
53294;DHT22;39181;53.440;5.644;2023-02-10T05:36:32;3.50;99.90
53294;DHT22;39181;53.440;5.644;2023-02-10T05:38:58;3.60;99.90
53294;DHT22;39181;53.440;5.644;2023-02-10T05:41:42;3.70;99.90
53294;DHT22;39181;53.440;5.644;2023-02-10T05:44:08;3.70;99.90
53294;DHT22;39181;53.440;5.644;2023-02-10T05:46:33;3.80;99.90
53294;DHT22;39181;53.440;5.644;2023-02-10T05:48:59;3.80;99.90
53294;DHT22;39181;53.440;5.644;2023-02-10T05:51:25;3.80;99.90
53294;DHT22;39181;53.440;5.644;2023-02-10T05:53:50;3.80;99.90
53294;DHT22;39181;53.440;5.644;2023-02-10T05:56:16;3.80;99.90
53294;DHT22;39181;53.440;5.644;2023-02-10T05:58:42;3.80;99.90
53294;DHT22;39181;53.440;5.644;2023-02-10T06:01:10;3.70;99.90
53294;DHT22;39181;53.440;5.644;2023-02-10T06:03:35;3.80;99.90
53294;DHT22;39181;53.440;5.644;2023-02-10T06:06:01;3.80;99.90
53294;DHT22;39181;53.440;5.644;2023-02-10T06:08:27;3.80;99.90
53294;DHT22;39181;53.440;5.644;2023-02-10T06:10:53;3.80;99.90
53294;DHT22;39181;53.440;5.644;2023-02-10T06:13:19;3.80;99.90
53294;DHT22;39181;53.440;5.644;2023-02-10T06:15:44;3.80;99.90
53294;DHT22;39181;53.440;5.644;2023-02-10T06:18:10;3.80;99.90
53294;DHT22;39181;53.440;5.644;2023-02-10T06:20:35;3.80;99.90
53294;DHT22;39181;53.440;5.644;2023-02-10T06:23:01;3.80;99.90
53294;DHT22;39181;53.440;5.644;2023-02-10T06:25:27;3.90;99.90
53294;DHT22;39181;53.440;5.644;2023-02-10T06:27:53;3.90;99.90
53294;DHT22;39181;53.440;5.644;2023-02-10T06:30:19;3.80;99.90
53294;DHT22;39181;53.440;5.644;2023-02-10T06:32:44;3.90;99.90
53294;DHT22;39181;53.440;5.644;2023-02-10T06:35:10;3.90;99.90
53294;DHT22;39181;53.440;5.644;2023-02-10T06:37:35;3.80;99.90
53294;DHT22;39181;53.440;5.644;2023-02-10T06:40:05;3.80;99.90
53294;DHT22;39181;53.440;5.644;2023-02-10T06:42:31;3.80;99.90
53294;DHT22;39181;53.440;5.644;2023-02-10T06:44:57;3.90;99.90
53294;DHT22;39181;53.440;5.644;2023-02-10T06:47:22;3.90;99.90
53294;DHT22;39181;53.440;5.644;2023-02-10T06:49:48;3.90;99.90
53294;DHT22;39181;53.440;5.644;2023-02-10T06:52:14;3.90;99.90
53294;DHT22;39181;53.440;5.644;2023-02-10T06:54:40;3.90;99.90
53294;DHT22;39181;53.440;5.644;2023-02-10T06:57:06;4.00;99.90
53294;DHT22;39181;53.440;5.644;2023-02-10T06:59:32;3.90;99.90
53294;DHT22;39181;53.440;5.644;2023-02-10T07:01:58;3.90;99.90
53294;DHT22;39181;53.440;5.644;2023-02-10T07:04:30;3.90;99.90
53294;DHT22;39181;53.440;5.644;2023-02-10T07:06:56;3.90;99.90
53294;DHT22;39181;53.440;5.644;2023-02-10T07:09:23;3.90;99.90
53294;DHT22;39181;53.440;5.644;2023-02-10T07:11:49;4.00;99.90
53294;DHT22;39181;53.440;5.644;2023-02-10T07:14:15;4.00;99.90
53294;DHT22;39181;53.440;5.644;2023-02-10T07:16:41;4.00;99.90
53294;DHT22;39181;53.440;5.644;2023-02-10T07:19:06;4.00;99.90
53294;DHT22;39181;53.440;5.644;2023-02-10T07:21:32;4.00;99.90
53294;DHT22;39181;53.440;5.644;2023-02-10T07:23:57;4.10;99.90
53294;DHT22;39181;53.440;5.644;2023-02-10T07:26:23;4.10;99.90
53294;DHT22;39181;53.440;5.644;2023-02-10T07:28:49;4.10;99.90
53294;DHT22;39181;53.440;5.644;2023-02-10T07:31:15;4.10;99.90
53294;DHT22;39181;53.440;5.644;2023-02-10T07:33:40;4.10;99.90
53294;DHT22;39181;53.440;5.644;2023-02-10T07:36:07;4.20;99.90
53294;DHT22;39181;53.440;5.644;2023-02-10T07:38:32;4.20;99.90
53294;DHT22;39181;53.440;5.644;2023-02-10T07:40:58;4.20;99.90
53294;DHT22;39181;53.440;5.644;2023-02-10T07:43:24;4.20;99.90
53294;DHT22;39181;53.440;5.644;2023-02-10T07:45:50;4.20;99.90
53294;DHT22;39181;53.440;5.644;2023-02-10T07:48:16;4.30;99.90
53294;DHT22;39181;53.440;5.644;2023-02-10T07:50:42;4.30;99.90
53294;DHT22;39181;53.440;5.644;2023-02-10T07:53:09;4.30;99.90
53294;DHT22;39181;53.440;5.644;2023-02-10T07:55:37;4.30;99.90
53294;DHT22;39181;53.440;5.644;2023-02-10T07:58:03;4.30;99.90
53294;DHT22;39181;53.440;5.644;2023-02-10T08:00:29;4.40;99.90
53294;DHT22;39181;53.440;5.644;2023-02-10T08:02:54;4.50;99.90
53294;DHT22;39181;53.440;5.644;2023-02-10T08:05:20;4.40;99.90
53294;DHT22;39181;53.440;5.644;2023-02-10T08:07:46;4.50;99.90
53294;DHT22;39181;53.440;5.644;2023-02-10T08:10:12;4.50;99.90
53294;DHT22;39181;53.440;5.644;2023-02-10T08:12:38;4.60;99.90
53294;DHT22;39181;53.440;5.644;2023-02-10T08:15:04;4.70;99.90
53294;DHT22;39181;53.440;5.644;2023-02-10T08:17:30;4.80;99.90
53294;DHT22;39181;53.440;5.644;2023-02-10T08:19:56;4.80;99.90
53294;DHT22;39181;53.440;5.644;2023-02-10T08:22:21;4.90;99.90
53294;DHT22;39181;53.440;5.644;2023-02-10T08:24:47;4.90;99.90
53294;DHT22;39181;53.440;5.644;2023-02-10T08:27:12;4.90;99.90
53294;DHT22;39181;53.440;5.644;2023-02-10T08:29:38;5.00;99.90
53294;DHT22;39181;53.440;5.644;2023-02-10T08:32:03;5.00;99.90
53294;DHT22;39181;53.440;5.644;2023-02-10T08:34:29;5.00;99.90
53294;DHT22;39181;53.440;5.644;2023-02-10T08:36:55;5.10;99.90
53294;DHT22;39181;53.440;5.644;2023-02-10T08:39:21;5.10;99.90
53294;DHT22;39181;53.440;5.644;2023-02-10T08:41:47;5.20;99.90
53294;DHT22;39181;53.440;5.644;2023-02-10T08:44:13;5.20;99.90
53294;DHT22;39181;53.440;5.644;2023-02-10T08:46:39;5.20;99.90
53294;DHT22;39181;53.440;5.644;2023-02-10T08:49:05;5.20;99.90
53294;DHT22;39181;53.440;5.644;2023-02-10T08:51:30;5.20;99.90
53294;DHT22;39181;53.440;5.644;2023-02-10T08:54:00;5.20;99.90
53294;DHT22;39181;53.440;5.644;2023-02-10T08:56:25;5.20;99.90
53294;DHT22;39181;53.440;5.644;2023-02-10T08:58:51;5.20;99.90
53294;DHT22;39181;53.440;5.644;2023-02-10T09:01:20;5.30;99.90
53294;DHT22;39181;53.440;5.644;2023-02-10T09:03:47;5.30;99.90
53294;DHT22;39181;53.440;5.644;2023-02-10T09:06:20;5.40;99.90
53294;DHT22;39181;53.440;5.644;2023-02-10T09:08:47;5.40;99.90
53294;DHT22;39181;53.440;5.644;2023-02-10T09:11:16;5.50;99.90
53294;DHT22;39181;53.440;5.644;2023-02-10T09:13:42;5.50;99.90
53294;DHT22;39181;53.440;5.644;2023-02-10T09:16:08;5.40;99.90
53294;DHT22;39181;53.440;5.644;2023-02-10T09:18:36;5.40;99.90
53294;DHT22;39181;53.440;5.644;2023-02-10T09:21:02;5.40;99.90
53294;DHT22;39181;53.440;5.644;2023-02-10T09:23:28;5.40;99.90
53294;DHT22;39181;53.440;5.644;2023-02-10T09:25:58;5.40;99.90
53294;DHT22;39181;53.440;5.644;2023-02-10T09:28:25;5.50;99.90
53294;DHT22;39181;53.440;5.644;2023-02-10T09:30:51;5.60;99.90
53294;DHT22;39181;53.440;5.644;2023-02-10T09:33:17;5.80;99.90
53294;DHT22;39181;53.440;5.644;2023-02-10T09:35:50;5.80;99.90
53294;DHT22;39181;53.440;5.644;2023-02-10T09:38:15;6.00;99.90
53294;DHT22;39181;53.440;5.644;2023-02-10T09:49:54;6.10;99.90
53294;DHT22;39181;53.440;5.644;2023-02-10T09:55:15;6.30;99.90
53294;DHT22;39181;53.440;5.644;2023-02-10T09:57:45;6.30;99.90
53294;DHT22;39181;53.440;5.644;2023-02-10T10:00:23;6.30;99.90
53294;DHT22;39181;53.440;5.644;2023-02-10T10:02:53;6.40;99.90
53294;DHT22;39181;53.440;5.644;2023-02-10T10:06:00;6.40;99.90
53294;DHT22;39181;53.440;5.644;2023-02-10T10:13:58;6.30;99.90
53294;DHT22;39181;53.440;5.644;2023-02-10T10:27:55;6.40;99.90
53294;DHT22;39181;53.440;5.644;2023-02-10T10:33:28;6.50;99.90
53294;DHT22;39181;53.440;5.644;2023-02-10T10:35:55;6.50;99.90
53294;DHT22;39181;53.440;5.644;2023-02-10T10:38:30;6.60;99.90
53294;DHT22;39181;53.440;5.644;2023-02-10T10:41:00;6.70;99.90
53294;DHT22;39181;53.440;5.644;2023-02-10T10:43:31;6.70;99.90
53294;DHT22;39181;53.440;5.644;2023-02-10T10:46:10;6.80;99.90
53294;DHT22;39181;53.440;5.644;2023-02-10T10:48:40;6.80;99.90
53294;DHT22;39181;53.440;5.644;2023-02-10T10:51:11;6.90;99.90
53294;DHT22;39181;53.440;5.644;2023-02-10T10:53:51;7.00;99.90
53294;DHT22;39181;53.440;5.644;2023-02-10T10:59:21;7.20;99.90
53294;DHT22;39181;53.440;5.644;2023-02-10T11:01:51;7.30;99.90
53294;DHT22;39181;53.440;5.644;2023-02-10T11:04:20;7.40;99.90
53294;DHT22;39181;53.440;5.644;2023-02-10T11:06:54;7.40;99.90
53294;DHT22;39181;53.440;5.644;2023-02-10T11:09:26;7.50;99.90
53294;DHT22;39181;53.440;5.644;2023-02-10T11:11:53;7.60;99.90
53294;DHT22;39181;53.440;5.644;2023-02-10T11:14:28;7.60;99.90
53294;DHT22;39181;53.440;5.644;2023-02-10T11:16:59;7.60;99.90
53294;DHT22;39181;53.440;5.644;2023-02-10T11:19:30;7.70;99.90
53294;DHT22;39181;53.440;5.644;2023-02-10T11:21:56;7.70;99.90
53294;DHT22;39181;53.440;5.644;2023-02-10T11:26:59;7.70;99.90
53294;DHT22;39181;53.440;5.644;2023-02-10T11:29:27;7.70;99.90
53294;DHT22;39181;53.440;5.644;2023-02-10T11:31:53;7.90;99.90
53294;DHT22;39181;53.440;5.644;2023-02-10T11:34:42;7.80;99.90
53294;DHT22;39181;53.440;5.644;2023-02-10T11:37:17;7.80;99.90
53294;DHT22;39181;53.440;5.644;2023-02-10T11:39:45;7.80;99.90
53294;DHT22;39181;53.440;5.644;2023-02-10T11:42:25;7.80;99.90
53294;DHT22;39181;53.440;5.644;2023-02-10T11:45:17;7.80;99.90
53294;DHT22;39181;53.440;5.644;2023-02-10T11:47:44;7.80;99.90
53294;DHT22;39181;53.440;5.644;2023-02-10T11:50:25;7.90;99.90
53294;DHT22;39181;53.440;5.644;2023-02-10T11:52:51;7.80;99.90
53294;DHT22;39181;53.440;5.644;2023-02-10T11:55:17;7.90;99.90
53294;DHT22;39181;53.440;5.644;2023-02-10T12:00:36;7.90;99.90
53294;DHT22;39181;53.440;5.644;2023-02-10T12:06:05;7.70;99.90
53294;DHT22;39181;53.440;5.644;2023-02-10T12:11:32;7.70;99.90
53294;DHT22;39181;53.440;5.644;2023-02-10T12:17:32;7.70;99.90
53294;DHT22;39181;53.440;5.644;2023-02-10T12:22:57;7.90;99.90
53294;DHT22;39181;53.440;5.644;2023-02-10T12:28:29;8.10;99.90
53294;DHT22;39181;53.440;5.644;2023-02-10T12:36:57;8.20;99.90
53294;DHT22;39181;53.440;5.644;2023-02-10T12:39:45;8.30;99.90
53294;DHT22;39181;53.440;5.644;2023-02-10T12:45:14;8.30;99.90
53294;DHT22;39181;53.440;5.644;2023-02-10T12:48:10;8.40;99.90
53294;DHT22;39181;53.440;5.644;2023-02-10T12:53:42;8.40;99.90
53294;DHT22;39181;53.440;5.644;2023-02-10T12:56:17;8.40;99.90
53294;DHT22;39181;53.440;5.644;2023-02-10T12:58:49;8.40;99.90
53294;DHT22;39181;53.440;5.644;2023-02-10T13:01:28;8.40;99.90
53294;DHT22;39181;53.440;5.644;2023-02-10T13:04:03;8.40;99.90
53294;DHT22;39181;53.440;5.644;2023-02-10T13:06:39;8.50;99.90
53294;DHT22;39181;53.440;5.644;2023-02-10T13:09:13;8.50;99.90
53294;DHT22;39181;53.440;5.644;2023-02-10T13:11:51;8.50;99.90
53294;DHT22;39181;53.440;5.644;2023-02-10T13:14:23;8.50;99.90
53294;DHT22;39181;53.440;5.644;2023-02-10T13:16:55;8.60;99.90
53294;DHT22;39181;53.440;5.644;2023-02-10T13:27:48;8.60;99.90
53294;DHT22;39181;53.440;5.644;2023-02-10T13:30:43;8.50;99.90
53294;DHT22;39181;53.440;5.644;2023-02-10T13:35:37;8.40;99.90
53294;DHT22;39181;53.440;5.644;2023-02-10T13:38:09;8.40;99.90
53294;DHT22;39181;53.440;5.644;2023-02-10T13:43:33;8.40;99.90
53294;DHT22;39181;53.440;5.644;2023-02-10T13:46:00;8.40;99.90
53294;DHT22;39181;53.440;5.644;2023-02-10T13:48:44;8.20;99.90
53294;DHT22;39181;53.440;5.644;2023-02-10T13:51:10;8.20;99.90
53294;DHT22;39181;53.440;5.644;2023-02-10T13:53:37;8.10;99.90
53294;DHT22;39181;53.440;5.644;2023-02-10T13:56:31;8.10;99.90
53294;DHT22;39181;53.440;5.644;2023-02-10T13:59:23;8.00;99.90
53294;DHT22;39181;53.440;5.644;2023-02-10T14:02:11;8.00;99.90
53294;DHT22;39181;53.440;5.644;2023-02-10T14:04:44;7.90;99.90
53294;DHT22;39181;53.440;5.644;2023-02-10T14:10:02;7.80;99.90
53294;DHT22;39181;53.440;5.644;2023-02-10T14:12:31;7.80;99.90
53294;DHT22;39181;53.440;5.644;2023-02-10T14:15:18;7.70;99.90
53294;DHT22;39181;53.440;5.644;2023-02-10T14:17:59;7.60;99.90
53294;DHT22;39181;53.440;5.644;2023-02-10T14:20:32;7.50;99.90
53294;DHT22;39181;53.440;5.644;2023-02-10T14:22:59;7.50;99.90
53294;DHT22;39181;53.440;5.644;2023-02-10T14:25:32;7.50;99.90
53294;DHT22;39181;53.440;5.644;2023-02-10T14:27:59;7.30;99.90
53294;DHT22;39181;53.440;5.644;2023-02-10T14:32:59;7.10;99.90
53294;DHT22;39181;53.440;5.644;2023-02-10T14:35:28;7.00;99.90
53294;DHT22;39181;53.440;5.644;2023-02-10T14:37:58;6.90;99.90
53294;DHT22;39181;53.440;5.644;2023-02-10T14:40:26;6.90;99.90
53294;DHT22;39181;53.440;5.644;2023-02-10T14:42:53;6.90;99.90
53294;DHT22;39181;53.440;5.644;2023-02-10T14:45:21;6.80;99.90
53294;DHT22;39181;53.440;5.644;2023-02-10T14:47:50;6.80;99.90
53294;DHT22;39181;53.440;5.644;2023-02-10T14:50:34;6.70;99.90
53294;DHT22;39181;53.440;5.644;2023-02-10T14:53:01;6.70;99.90
53294;DHT22;39181;53.440;5.644;2023-02-10T14:55:35;6.60;99.90
53294;DHT22;39181;53.440;5.644;2023-02-10T14:58:12;6.60;99.90
53294;DHT22;39181;53.440;5.644;2023-02-10T15:00:40;6.60;99.90
53294;DHT22;39181;53.440;5.644;2023-02-10T15:03:06;6.50;99.90
53294;DHT22;39181;53.440;5.644;2023-02-10T15:05:43;6.40;99.90
53294;DHT22;39181;53.440;5.644;2023-02-10T15:08:15;6.40;99.90
53294;DHT22;39181;53.440;5.644;2023-02-10T15:10:45;6.50;99.90
53294;DHT22;39181;53.440;5.644;2023-02-10T15:13:12;6.50;99.90
53294;DHT22;39181;53.440;5.644;2023-02-10T15:15:42;6.50;99.90
53294;DHT22;39181;53.440;5.644;2023-02-10T15:18:20;6.40;99.90
53294;DHT22;39181;53.440;5.644;2023-02-10T15:20:57;6.40;99.90
53294;DHT22;39181;53.440;5.644;2023-02-10T15:23:23;6.40;99.90
53294;DHT22;39181;53.440;5.644;2023-02-10T15:28:40;6.40;99.90
53294;DHT22;39181;53.440;5.644;2023-02-10T15:31:24;6.40;99.90
53294;DHT22;39181;53.440;5.644;2023-02-10T15:33:51;6.40;99.90
53294;DHT22;39181;53.440;5.644;2023-02-10T15:36:21;6.50;99.90
53294;DHT22;39181;53.440;5.644;2023-02-10T15:44:59;6.60;99.90
53294;DHT22;39181;53.440;5.644;2023-02-10T15:49:37;6.50;99.90
53294;DHT22;39181;53.440;5.644;2023-02-10T15:52:03;6.50;99.90
53294;DHT22;39181;53.440;5.644;2023-02-10T15:54:29;6.40;99.90
53294;DHT22;39181;53.440;5.644;2023-02-10T15:57:04;6.30;99.90
53294;DHT22;39181;53.440;5.644;2023-02-10T15:59:30;6.30;99.90
53294;DHT22;39181;53.440;5.644;2023-02-10T16:01:58;6.20;99.90
53294;DHT22;39181;53.440;5.644;2023-02-10T16:04:24;6.20;99.90
53294;DHT22;39181;53.440;5.644;2023-02-10T16:06:51;6.10;99.90
53294;DHT22;39181;53.440;5.644;2023-02-10T16:09:16;6.10;99.90
53294;DHT22;39181;53.440;5.644;2023-02-10T16:11:42;6.00;99.90
53294;DHT22;39181;53.440;5.644;2023-02-10T16:14:08;5.90;99.90
53294;DHT22;39181;53.440;5.644;2023-02-10T16:16:37;6.00;99.90
53294;DHT22;39181;53.440;5.644;2023-02-10T16:19:04;5.90;99.90
53294;DHT22;39181;53.440;5.644;2023-02-10T16:21:30;5.80;99.90
53294;DHT22;39181;53.440;5.644;2023-02-10T16:23:56;5.80;99.90
53294;DHT22;39181;53.440;5.644;2023-02-10T16:26:23;5.70;99.90
53294;DHT22;39181;53.440;5.644;2023-02-10T16:28:50;5.70;99.90
53294;DHT22;39181;53.440;5.644;2023-02-10T16:31:16;5.70;99.90
53294;DHT22;39181;53.440;5.644;2023-02-10T16:33:44;5.60;99.90
53294;DHT22;39181;53.440;5.644;2023-02-10T16:36:13;5.50;99.90
53294;DHT22;39181;53.440;5.644;2023-02-10T16:38:39;5.50;99.90
53294;DHT22;39181;53.440;5.644;2023-02-10T16:41:04;5.50;99.90
53294;DHT22;39181;53.440;5.644;2023-02-10T16:43:30;5.50;99.90
53294;DHT22;39181;53.440;5.644;2023-02-10T16:45:56;5.50;99.90
53294;DHT22;39181;53.440;5.644;2023-02-10T16:48:21;5.50;99.90
53294;DHT22;39181;53.440;5.644;2023-02-10T16:50:47;5.40;99.90
53294;DHT22;39181;53.440;5.644;2023-02-10T16:53:12;5.40;99.90
53294;DHT22;39181;53.440;5.644;2023-02-10T16:55:40;5.40;99.90
53294;DHT22;39181;53.440;5.644;2023-02-10T16:58:07;5.30;99.90
53294;DHT22;39181;53.440;5.644;2023-02-10T17:00:36;5.30;99.90
53294;DHT22;39181;53.440;5.644;2023-02-10T17:03:02;5.20;99.90
53294;DHT22;39181;53.440;5.644;2023-02-10T17:05:31;5.30;99.90
53294;DHT22;39181;53.440;5.644;2023-02-10T17:07:58;5.30;99.90
53294;DHT22;39181;53.440;5.644;2023-02-10T17:10:27;5.30;99.90
53294;DHT22;39181;53.440;5.644;2023-02-10T17:12:53;5.30;99.90
53294;DHT22;39181;53.440;5.644;2023-02-10T17:15:18;5.30;99.90
53294;DHT22;39181;53.440;5.644;2023-02-10T17:17:44;5.30;99.90
53294;DHT22;39181;53.440;5.644;2023-02-10T17:20:21;5.30;99.90
53294;DHT22;39181;53.440;5.644;2023-02-10T17:22:46;5.40;99.90
53294;DHT22;39181;53.440;5.644;2023-02-10T17:25:12;5.40;99.90
53294;DHT22;39181;53.440;5.644;2023-02-10T17:27:38;5.40;99.90
53294;DHT22;39181;53.440;5.644;2023-02-10T17:30:04;5.40;99.90
53294;DHT22;39181;53.440;5.644;2023-02-10T17:32:30;5.40;99.90
53294;DHT22;39181;53.440;5.644;2023-02-10T17:34:56;5.30;99.90
53294;DHT22;39181;53.440;5.644;2023-02-10T17:37:22;5.30;99.90
53294;DHT22;39181;53.440;5.644;2023-02-10T17:39:47;5.30;99.90
53294;DHT22;39181;53.440;5.644;2023-02-10T17:42:16;5.20;99.90
53294;DHT22;39181;53.440;5.644;2023-02-10T17:44:44;5.20;99.90
53294;DHT22;39181;53.440;5.644;2023-02-10T17:47:09;5.20;99.90
53294;DHT22;39181;53.440;5.644;2023-02-10T17:49:35;5.10;99.90
53294;DHT22;39181;53.440;5.644;2023-02-10T17:52:01;5.10;99.90
53294;DHT22;39181;53.440;5.644;2023-02-10T17:54:28;5.10;99.90
53294;DHT22;39181;53.440;5.644;2023-02-10T17:56:56;5.10;99.90
53294;DHT22;39181;53.440;5.644;2023-02-10T17:59:22;5.10;99.90